Time;durP1;ratioP1;P1;durP2;ratioP2;P2;SDS_P1;SDS_P2;PMS_P1;PMS_P2;Temp;Humidity;BMP_temperature;BMP_pressure;BME280_temperature;BME280_humidity;BME280_pressure;Samples;Min_cycle;Max_cycle;Signal;HPM_P1;HPM_P2
2021/12/12 00:00:16;;;;;;;3.13;2.83;;;16.40;75.60;;;;;;4975333;28;20137;-65
2021/12/12 00:02:56;;;;;;;2.92;2.53;;;16.40;75.60;;;;;;4975373;28;20054;-65
2021/12/12 00:05:22;;;;;;;3.05;2.75;;;16.40;75.70;;;;;;4975363;28;20053;-65
2021/12/12 00:07:49;;;;;;;3.88;2.70;;;16.40;75.60;;;;;;4975563;28;20480;-65
2021/12/12 00:10:15;;;;;;;3.55;2.78;;;16.40;75.70;;;;;;4975526;28;20057;-65
2021/12/12 00:12:42;;;;;;;2.90;2.58;;;16.40;75.80;;;;;;4975737;28;20042;-65
2021/12/12 00:15:08;;;;;;;2.67;2.45;;;16.40;75.70;;;;;;4975451;28;20142;-65
2021/12/12 00:17:35;;;;;;;3.38;2.97;;;16.40;75.70;;;;;;4975442;28;20495;-65
2021/12/12 00:20:01;;;;;;;3.13;2.70;;;16.40;75.80;;;;;;4975349;28;20046;-65
2021/12/12 00:22:27;;;;;;;3.10;2.80;;;16.40;75.80;;;;;;4975055;28;20046;-65
2021/12/12 00:24:54;;;;;;;3.08;2.78;;;16.40;75.80;;;;;;4975294;28;20134;-65
2021/12/12 00:27:21;;;;;;;3.60;2.97;;;16.30;75.70;;;;;;4975286;28;20101;-65
2021/12/12 00:29:48;;;;;;;3.22;2.92;;;16.40;75.90;;;;;;4975536;28;20113;-65
2021/12/12 00:32:14;;;;;;;3.70;2.95;;;16.40;75.90;;;;;;4975303;28;20134;-65
2021/12/12 00:34:41;;;;;;;2.95;2.67;;;16.40;75.80;;;;;;4974286;28;20043;-65
2021/12/12 00:37:08;;;;;;;3.42;2.80;;;16.40;75.90;;;;;;4975175;28;20134;-65
2021/12/12 00:39:34;;;;;;;3.78;3.30;;;16.30;75.90;;;;;;4975176;28;20055;-65
2021/12/12 00:42:01;;;;;;;3.53;2.53;;;16.40;75.90;;;;;;4974690;28;20133;-65
2021/12/12 00:44:27;;;;;;;3.70;3.40;;;16.40;75.90;;;;;;4974880;28;20125;-65
2021/12/12 00:46:54;;;;;;;3.88;3.15;;;16.40;75.90;;;;;;4974852;28;20141;-65
2021/12/12 00:49:20;;;;;;;2.83;2.63;;;16.40;75.90;;;;;;4974667;28;20046;-65
2021/12/12 00:51:46;;;;;;;4.18;3.10;;;16.40;75.90;;;;;;4974747;28;20495;-65
2021/12/12 00:54:13;;;;;;;3.40;2.88;;;16.40;75.90;;;;;;4974706;28;20049;-65
2021/12/12 00:56:39;;;;;;;4.03;3.25;;;16.40;76.00;;;;;;4974614;28;20051;-65
2021/12/12 00:59:06;;;;;;;3.25;2.85;;;16.40;75.90;;;;;;4974678;28;20057;-65
2021/12/12 01:01:33;;;;;;;3.03;2.72;;;16.40;75.90;;;;;;4974308;28;20455;-65
2021/12/12 01:04:00;;;;;;;3.28;2.97;;;16.40;76.00;;;;;;4974068;28;20058;-65
2021/12/12 01:06:26;;;;;;;3.50;2.90;;;16.40;76.00;;;;;;4974305;28;20051;-65
2021/12/12 01:08:53;;;;;;;4.03;3.00;;;16.40;76.00;;;;;;4974344;28;20487;-65
2021/12/12 01:11:19;;;;;;;4.07;3.28;;;16.40;76.00;;;;;;4974544;28;20126;-65
2021/12/12 01:13:46;;;;;;;3.75;3.17;;;16.40;76.10;;;;;;4974495;28;20138;-65
2021/12/12 01:16:12;;;;;;;4.35;3.33;;;16.40;76.00;;;;;;4974254;28;20055;-65
2021/12/12 01:18:39;;;;;;;4.05;3.00;;;16.40;76.00;;;;;;4974070;28;20098;-65
2021/12/12 01:21:06;;;;;;;4.32;2.97;;;16.40;76.00;;;;;;4974056;28;20086;-65
2021/12/12 01:23:33;;;;;;;3.97;3.58;;;16.40;76.10;;;;;;4974146;28;20067;-65
2021/12/12 01:25:59;;;;;;;4.88;3.30;;;16.40;76.10;;;;;;4974511;28;20051;-65
2021/12/12 01:28:26;;;;;;;3.95;3.38;;;16.40;76.10;;;;;;4973906;28;20074;-65
2021/12/12 01:30:52;;;;;;;3.60;3.00;;;16.40;76.10;;;;;;4973835;28;20057;-65
2021/12/12 01:33:32;;;;;;;3.20;2.90;;;16.40;76.10;;;;;;4988414;28;20136;-65
2021/12/12 01:35:58;;;;;;;3.67;2.97;;;16.40;76.10;;;;;;4993465;28;20057;-65
2021/12/12 01:41:09;;;;;;;3.22;2.92;;;16.40;76.10;;;;;;4993310;28;20033;-65
2021/12/12 01:43:35;;;;;;;4.38;3.30;;;16.40;76.20;;;;;;4993015;28;20082;-65
2021/12/12 01:46:02;;;;;;;3.70;3.00;;;16.40;76.10;;;;;;4992332;28;20483;-65
2021/12/12 01:48:28;;;;;;;4.45;3.58;;;16.40;76.20;;;;;;4993033;28;20129;-65
2021/12/12 01:50:54;;;;;;;3.65;3.08;;;16.40;76.20;;;;;;4993234;28;20050;-65
2021/12/12 01:53:21;;;;;;;3.42;2.83;;;16.40;76.20;;;;;;4993025;28;20146;-65
2021/12/12 01:55:48;;;;;;;4.45;3.30;;;16.40;76.20;;;;;;4992986;28;20046;-65
2021/12/12 01:58:14;;;;;;;3.92;3.17;;;16.40;76.20;;;;;;4992844;28;20076;-65
2021/12/12 02:00:40;;;;;;;4.78;2.88;;;16.30;76.20;;;;;;4993051;28;20121;-65
2021/12/12 02:03:07;;;;;;;3.88;3.17;;;16.40;76.20;;;;;;4978025;28;20141;-65
2021/12/12 02:05:34;;;;;;;3.58;2.85;;;16.40;76.20;;;;;;4973563;28;20465;-65
2021/12/12 02:08:01;;;;;;;3.22;2.78;;;16.40;76.30;;;;;;4973195;28;20051;-66
2021/12/12 02:10:27;;;;;;;3.50;2.75;;;16.40;76.30;;;;;;4973294;28;20050;-65
2021/12/12 02:12:54;;;;;;;4.07;3.20;;;16.40;76.30;;;;;;4973174;28;20082;-65
2021/12/12 02:15:20;;;;;;;3.88;3.05;;;16.40;76.20;;;;;;4973062;28;20595;-65
2021/12/12 02:17:48;;;;;;;3.47;2.78;;;16.40;76.30;;;;;;4973037;28;20415;-65
2021/12/12 02:20:18;;;;;;;4.43;3.40;;;16.40;76.30;;;;;;4973209;28;20125;-65
2021/12/12 02:22:58;;;;;;;3.78;3.20;;;16.40;76.30;;;;;;4973021;28;20141;-65
2021/12/12 02:36:22;;;;;;;3.72;2.78;;;16.40;76.30;;;;;;4992246;28;20460;-65
2021/12/12 02:38:48;;;;;;;3.17;2.70;;;16.40;76.30;;;;;;4992329;28;20072;-65
2021/12/12 02:41:15;;;;;;;3.17;2.75;;;16.40;76.40;;;;;;4992234;28;20133;-65
2021/12/12 02:43:41;;;;;;;3.20;2.72;;;16.40;76.40;;;;;;4992164;28;20133;-65
2021/12/12 02:46:08;;;;;;;2.83;2.45;;;16.40;76.40;;;;;;4992108;28;20100;-65
2021/12/12 02:48:34;;;;;;;3.22;2.90;;;16.40;76.40;;;;;;4992443;28;20050;-65
2021/12/12 02:51:00;;;;;;;3.53;2.72;;;16.40;76.40;;;;;;4992026;28;20587;-65
2021/12/12 02:53:27;;;;;;;3.58;2.83;;;16.40;76.40;;;;;;4992050;28;20064;-65
2021/12/12 02:55:53;;;;;;;4.07;2.70;;;16.40;76.40;;;;;;4992045;28;20050;-65
2021/12/12 02:58:20;;;;;;;3.78;2.70;;;16.40;76.40;;;;;;4991688;28;20133;-65
2021/12/12 03:00:47;;;;;;;3.70;3.00;;;16.40;76.40;;;;;;4984863;28;20050;-65
2021/12/12 03:03:13;;;;;;;3.83;2.83;;;16.40;76.50;;;;;;4972569;28;20354;-65
2021/12/12 03:05:41;;;;;;;3.60;2.80;;;16.40;76.40;;;;;;4972571;28;20488;-65
2021/12/12 03:08:07;;;;;;;3.60;2.60;;;16.40;76.40;;;;;;4972791;28;20057;-65
2021/12/12 03:10:34;;;;;;;3.20;2.88;;;16.30;76.40;;;;;;4972568;28;20043;-65
2021/12/12 03:13:00;;;;;;;3.05;2.60;;;16.40;76.50;;;;;;4972442;28;20137;-65
2021/12/12 03:15:27;;;;;;;3.55;2.67;;;16.40;76.50;;;;;;4972486;28;20142;-65
2021/12/12 03:17:53;;;;;;;3.55;2.88;;;16.40;76.50;;;;;;4972292;28;20534;-65
2021/12/12 03:20:24;;;;;;;3.63;2.53;;;16.40;76.50;;;;;;4972490;28;20078;-65
2021/12/12 03:22:51;;;;;;;3.60;2.50;;;16.40;76.50;;;;;;4972502;28;20055;-65
2021/12/12 03:25:17;;;;;;;3.10;2.45;;;16.40;76.50;;;;;;4972342;28;20475;-65
2021/12/12 03:27:43;;;;;;;3.22;2.80;;;16.40;76.50;;;;;;4972438;28;20134;-65
2021/12/12 03:30:10;;;;;;;3.28;2.53;;;16.40;76.50;;;;;;4972248;28;20582;-65
2021/12/12 03:32:36;;;;;;;3.85;2.60;;;16.40;76.50;;;;;;4972070;28;20492;-65
2021/12/12 03:35:04;;;;;;;3.95;2.92;;;16.40;76.50;;;;;;4972401;28;20130;-65
2021/12/12 03:37:30;;;;;;;4.65;2.83;;;16.40;76.60;;;;;;4972581;28;20077;-65
2021/12/12 03:39:56;;;;;;;3.80;2.65;;;16.40;76.60;;;;;;4972334;28;20129;-65
2021/12/12 03:42:23;;;;;;;4.20;3.00;;;16.40;76.50;;;;;;4972051;28;20479;-65
2021/12/12 03:44:49;;;;;;;4.15;2.88;;;16.40;76.50;;;;;;4972380;28;20081;-65
2021/12/12 03:47:16;;;;;;;2.95;2.47;;;16.40;76.50;;;;;;4972345;28;20046;-65
2021/12/12 03:49:42;;;;;;;4.07;2.65;;;16.40;76.50;;;;;;4972223;28;20478;-65
2021/12/12 03:52:09;;;;;;;3.22;2.70;;;16.40;76.50;;;;;;4972264;28;20050;-65
2021/12/12 03:54:35;;;;;;;3.80;2.38;;;16.40;76.50;;;;;;4972321;28;20134;-65
2021/12/12 03:57:02;;;;;;;3.60;2.30;;;16.40;76.50;;;;;;4971843;28;20063;-65
2021/12/12 03:59:28;;;;;;;2.90;2.42;;;16.40;76.50;;;;;;4972277;28;20057;-65
2021/12/12 04:01:55;;;;;;;3.75;2.30;;;16.40;76.50;;;;;;4971667;28;20481;-65
2021/12/12 04:04:21;;;;;;;3.85;2.75;;;16.40;76.60;;;;;;4971877;28;20415;-65
2021/12/12 04:06:48;;;;;;;3.40;2.33;;;16.40;76.60;;;;;;4972212;28;20130;-65
2021/12/12 04:09:15;;;;;;;3.47;2.20;;;16.50;76.60;;;;;;4971992;28;20492;-65
2021/12/12 04:11:41;;;;;;;4.38;2.58;;;16.40;76.50;;;;;;4975337;28;20393;-65
2021/12/12 04:14:07;;;;;;;3.05;2.50;;;16.40;76.60;;;;;;4975620;28;20130;-65
2021/12/12 04:16:34;;;;;;;3.53;2.47;;;16.40;76.60;;;;;;4975400;28;20051;-65
2021/12/12 04:19:00;;;;;;;3.22;2.33;;;16.40;76.60;;;;;;4975452;28;20047;-65
2021/12/12 04:21:27;;;;;;;3.28;2.35;;;16.40;76.60;;;;;;4975302;28;20061;-65
2021/12/12 04:23:53;;;;;;;3.20;2.08;;;16.40;76.60;;;;;;4975411;28;20057;-65
2021/12/12 04:26:20;;;;;;;3.10;2.05;;;16.50;76.70;;;;;;4975272;28;20461;-65
2021/12/12 04:28:47;;;;;;;2.58;2.10;;;16.50;76.60;;;;;;4975265;28;20097;-65
2021/12/12 04:31:13;;;;;;;3.75;2.33;;;16.40;76.60;;;;;;4992765;28;20133;-65
2021/12/12 04:33:40;;;;;;;2.88;2.33;;;16.50;76.70;;;;;;4994526;28;20407;-65
2021/12/12 04:36:06;;;;;;;3.38;2.30;;;16.50;77.20;;;;;;4994527;28;20061;-65
2021/12/12 04:38:33;;;;;;;2.72;2.25;;;16.50;76.60;;;;;;4994328;28;20051;-65
2021/12/12 04:40:59;;;;;;;3.60;2.50;;;16.40;76.60;;;;;;4994524;28;20046;-65
2021/12/12 04:43:25;;;;;;;3.45;2.13;;;16.50;76.70;;;;;;4994605;28;20062;-65
2021/12/12 04:45:58;;;;;;;3.40;2.13;;;16.50;76.70;;;;;;4994296;28;20581;-65
2021/12/12 04:51:09;;;;;;;3.70;2.20;;;16.50;76.70;;;;;;4994257;28;20116;-65
2021/12/12 04:53:35;;;;;;;3.90;2.55;;;16.50;76.70;;;;;;4994288;28;20048;-65
2021/12/12 04:56:01;;;;;;;3.17;2.25;;;16.50;76.70;;;;;;4994316;28;20043;-65
2021/12/12 04:58:28;;;;;;;2.47;1.95;;;16.50;76.70;;;;;;4994073;28;20050;-65
2021/12/12 05:00:54;;;;;;;3.13;2.13;;;16.50;76.70;;;;;;4993494;28;20419;-65
2021/12/12 05:03:21;;;;;;;3.25;2.20;;;16.40;76.70;;;;;;4993949;28;20125;-65
2021/12/12 05:05:47;;;;;;;3.63;2.58;;;16.50;76.70;;;;;;4993909;28;20053;-65
2021/12/12 05:08:14;;;;;;;3.45;2.00;;;16.50;76.80;;;;;;4994405;28;20043;-65
2021/12/12 05:10:40;;;;;;;2.65;2.15;;;16.40;76.70;;;;;;4993774;28;20132;-65
2021/12/12 05:13:07;;;;;;;2.13;1.65;;;16.50;76.80;;;;;;4993776;28;20054;-65
2021/12/12 05:15:33;;;;;;;2.95;1.90;;;16.50;76.80;;;;;;4993917;28;20517;-65
2021/12/12 05:18:00;;;;;;;2.55;1.90;;;16.50;76.80;;;;;;4993745;28;20046;-65
2021/12/12 05:20:26;;;;;;;3.38;2.00;;;16.40;76.80;;;;;;4993701;28;20086;-65
2021/12/12 05:22:53;;;;;;;2.47;1.75;;;16.50;76.90;;;;;;4993568;28;20551;-65
2021/12/12 05:25:19;;;;;;;2.38;1.90;;;16.50;76.90;;;;;;4993857;28;20046;-65
2021/12/12 05:27:45;;;;;;;2.13;1.92;;;16.40;76.80;;;;;;4993624;28;20129;-65
2021/12/12 05:30:12;;;;;;;2.75;2.03;;;16.50;76.90;;;;;;4993165;28;20046;-65
2021/12/12 05:32:38;;;;;;;1.98;1.75;;;16.50;76.90;;;;;;4993270;28;20054;-65
2021/12/12 05:35:05;;;;;;;3.40;2.05;;;16.50;76.90;;;;;;4993511;28;20586;-65
2021/12/12 05:37:31;;;;;;;3.22;2.03;;;16.50;76.90;;;;;;4993262;28;20141;-65
2021/12/12 05:39:59;;;;;;;2.78;1.73;;;16.50;77.00;;;;;;4993508;28;20052;-65
2021/12/12 05:42:26;;;;;;;2.30;1.90;;;16.50;76.90;;;;;;4993230;28;20046;-65
2021/12/12 05:44:52;;;;;;;3.42;2.17;;;16.50;76.90;;;;;;4993113;28;20480;-65
2021/12/12 05:47:19;;;;;;;2.33;1.80;;;16.50;77.00;;;;;;4993198;28;20072;-65
2021/12/12 05:49:45;;;;;;;2.33;1.50;;;16.40;77.00;;;;;;4993341;28;20043;-65
2021/12/12 05:52:12;;;;;;;1.73;1.50;;;16.50;77.00;;;;;;4993288;28;20054;-65
2021/12/12 05:54:38;;;;;;;2.58;1.60;;;16.50;77.00;;;;;;4993127;28;20486;-66
2021/12/12 05:57:05;;;;;;;2.03;1.40;;;16.50;77.00;;;;;;4993084;28;20089;-65
2021/12/12 05:59:31;;;;;;;2.75;1.80;;;16.50;77.00;;;;;;4977848;28;20047;-65
2021/12/12 06:01:58;;;;;;;1.98;1.40;;;16.50;77.00;;;;;;4973122;28;20074;-65
2021/12/12 06:04:24;;;;;;;2.00;1.67;;;16.50;77.30;;;;;;4973155;28;20146;-65
2021/12/12 06:06:51;;;;;;;2.88;1.63;;;16.50;77.00;;;;;;4973248;28;20050;-65
2021/12/12 06:09:17;;;;;;;2.58;1.55;;;16.50;77.00;;;;;;4973398;28;20075;-65
2021/12/12 06:11:44;;;;;;;2.38;1.67;;;16.50;77.00;;;;;;4973864;28;20082;-65
2021/12/12 06:14:10;;;;;;;2.50;1.48;;;16.50;77.00;;;;;;4973255;28;20050;-65
2021/12/12 06:16:37;;;;;;;2.55;1.77;;;16.40;77.00;;;;;;4973481;28;20581;-65
2021/12/12 06:19:03;;;;;;;2.53;1.60;;;16.50;77.10;;;;;;4973328;28;20046;-65
2021/12/12 06:21:30;;;;;;;2.25;1.80;;;16.50;77.10;;;;;;4972990;28;20082;-65
2021/12/12 06:23:56;;;;;;;2.05;1.45;;;16.50;77.10;;;;;;4973209;28;20125;-65
2021/12/12 06:26:23;;;;;;;1.60;1.20;;;16.50;77.10;;;;;;4973139;28;20061;-65
2021/12/12 06:28:49;;;;;;;1.75;1.20;;;16.50;77.10;;;;;;4972915;28;20145;-65
2021/12/12 06:31:16;;;;;;;1.80;1.38;;;16.50;77.10;;;;;;4972872;28;20050;-65
2021/12/12 06:33:42;;;;;;;2.15;1.25;;;16.50;77.10;;;;;;4972217;28;20496;-65
2021/12/12 06:36:08;;;;;;;1.48;1.20;;;16.50;77.20;;;;;;4973068;28;20065;-65
2021/12/12 06:38:35;;;;;;;1.63;1.13;;;16.50;77.20;;;;;;4972817;28;20054;-65
2021/12/12 06:41:01;;;;;;;1.80;1.40;;;16.50;77.10;;;;;;4972835;28;20138;-65
2021/12/12 06:43:28;;;;;;;1.58;1.30;;;16.50;77.20;;;;;;4972645;28;20059;-65
2021/12/12 06:45:54;;;;;;;2.10;1.27;;;16.50;77.20;;;;;;4972528;28;20486;-65
2021/12/12 06:48:21;;;;;;;2.28;1.52;;;16.50;77.20;;;;;;4973016;28;20130;-65
2021/12/12 06:50:47;;;;;;;1.90;1.40;;;16.50;77.20;;;;;;4972764;28;20049;-65
2021/12/12 06:53:14;;;;;;;1.85;1.30;;;16.50;77.30;;;;;;4972705;28;20325;-65
2021/12/12 06:55:44;;;;;;;1.58;1.20;;;16.50;77.30;;;;;;4972670;28;20507;-65
2021/12/12 06:58:10;;;;;;;1.50;1.20;;;16.50;77.20;;;;;;4972432;28;20050;-65
2021/12/12 07:00:37;;;;;;;1.70;1.52;;;16.50;77.20;;;;;;4972395;28;20507;-65
2021/12/12 07:03:03;;;;;;;1.33;1.17;;;16.50;77.90;;;;;;4972576;28;20054;-65
2021/12/12 07:05:29;;;;;;;1.83;1.40;;;16.50;77.30;;;;;;4972628;28;20053;-65
2021/12/12 07:07:56;;;;;;;1.00;0.90;;;16.50;77.30;;;;;;4972654;28;20046;-65
2021/12/12 07:10:22;;;;;;;2.05;1.00;;;16.50;77.30;;;;;;4972520;28;20424;-65
2021/12/12 07:12:54;;;;;;;1.67;1.10;;;16.50;77.30;;;;;;4972916;28;20125;-65
2021/12/12 07:15:21;;;;;;;1.77;1.10;;;16.50;77.30;;;;;;4972630;28;20046;-65
2021/12/12 07:17:47;;;;;;;1.40;1.10;;;16.50;77.30;;;;;;4972566;28;20051;-65
2021/12/12 07:20:14;;;;;;;1.40;1.02;;;16.50;77.30;;;;;;4972530;28;20055;-65
2021/12/12 07:22:40;;;;;;;1.50;1.00;;;16.40;77.30;;;;;;4972295;28;20492;-66
2021/12/12 07:25:07;;;;;;;1.70;0.95;;;16.50;77.40;;;;;;4972247;28;20563;-65
2021/12/12 07:27:33;;;;;;;1.52;1.15;;;16.50;77.30;;;;;;4972403;28;20054;-65
2021/12/12 07:30:01;;;;;;;0.98;0.80;;;16.50;77.40;;;;;;4972338;28;20046;-65
2021/12/12 07:32:27;;;;;;;1.30;1.02;;;16.50;77.40;;;;;;4972457;28;20494;-65
2021/12/12 07:34:53;;;;;;;0.82;0.73;;;16.50;77.40;;;;;;4972348;28;20078;-65
2021/12/12 07:37:20;;;;;;;1.38;1.05;;;16.50;77.40;;;;;;4972246;28;20137;-65
2021/12/12 07:39:46;;;;;;;1.10;1.00;;;16.50;77.50;;;;;;4972181;28;20456;-65
2021/12/12 07:42:13;;;;;;;1.50;0.98;;;16.50;77.50;;;;;;4972438;28;20050;-65
2021/12/12 07:44:40;;;;;;;1.40;0.90;;;16.50;77.50;;;;;;4973000;28;20057;-65
2021/12/12 07:47:06;;;;;;;1.05;0.77;;;16.50;77.40;;;;;;4976074;28;20051;-65
2021/12/12 07:49:33;;;;;;;1.33;0.90;;;16.50;77.50;;;;;;4976312;28;20057;-65
2021/12/12 07:51:59;;;;;;;1.00;0.88;;;16.40;77.50;;;;;;4975847;28;20480;-65
2021/12/12 07:54:26;;;;;;;1.25;0.80;;;16.50;77.50;;;;;;4975902;28;20217;-65
2021/12/12 07:56:52;;;;;;;1.02;0.88;;;16.50;77.50;;;;;;4975648;28;20053;-65
2021/12/12 07:59:19;;;;;;;0.70;0.70;;;16.50;77.50;;;;;;4975568;28;20133;-65
2021/12/12 08:01:45;;;;;;;1.30;0.82;;;16.50;77.60;;;;;;4975579;28;20079;-65
2021/12/12 08:04:12;;;;;;;1.63;0.90;;;16.50;77.50;;;;;;4975349;28;20138;-65
2021/12/12 08:06:38;;;;;;;0.90;0.80;;;16.50;77.50;;;;;;4976281;28;20053;-65
2021/12/12 08:09:05;;;;;;;1.10;1.00;;;16.50;77.60;;;;;;4975587;28;20484;-65
2021/12/12 08:11:33;;;;;;;1.10;0.80;;;16.50;77.60;;;;;;4975534;28;20043;-65
2021/12/12 08:13:59;;;;;;;1.15;0.70;;;16.50;77.60;;;;;;4975793;28;20120;-65
2021/12/12 08:16:26;;;;;;;1.08;0.80;;;16.50;77.60;;;;;;4975381;28;20134;-65
2021/12/12 08:18:52;;;;;;;0.60;0.60;;;16.50;77.60;;;;;;4975238;28;20452;-65
2021/12/12 08:21:19;;;;;;;1.17;0.88;;;16.50;77.60;;;;;;4975186;28;20121;-65
2021/12/12 08:23:45;;;;;;;1.00;0.70;;;16.50;77.60;;;;;;4975013;28;20089;-65
2021/12/12 08:26:12;;;;;;;1.23;0.80;;;16.50;77.60;;;;;;4975046;28;20519;-65
2021/12/12 08:28:38;;;;;;;0.60;0.60;;;16.50;77.70;;;;;;4975692;28;20126;-65
2021/12/12 08:31:05;;;;;;;0.90;0.60;;;16.50;77.70;;;;;;4974990;28;20051;-65
2021/12/12 08:33:31;;;;;;;0.77;0.70;;;16.50;77.60;;;;;;4975109;28;20053;-65
2021/12/12 08:35:58;;;;;;;0.70;0.70;;;16.50;78.20;;;;;;4975040;28;20133;-65
2021/12/12 08:38:24;;;;;;;1.25;0.70;;;16.50;77.70;;;;;;4975099;28;20401;-65
2021/12/12 08:40:51;;;;;;;1.05;0.70;;;16.50;77.80;;;;;;4975008;28;20129;-65
2021/12/12 08:43:17;;;;;;;0.70;0.70;;;16.50;77.70;;;;;;4974801;28;20137;-65
2021/12/12 08:45:43;;;;;;;0.82;0.73;;;16.50;77.70;;;;;;4975083;28;20467;-65
2021/12/12 08:48:10;;;;;;;0.98;0.70;;;16.50;77.80;;;;;;4974952;28;20070;-65
2021/12/12 08:50:36;;;;;;;0.70;0.70;;;16.50;77.80;;;;;;4974805;28;20130;-65
2021/12/12 08:53:03;;;;;;;0.60;0.60;;;16.50;77.80;;;;;;4974963;28;20218;-65
2021/12/12 08:55:32;;;;;;;0.68;0.60;;;16.50;77.80;;;;;;4974035;28;20393;-65
2021/12/12 08:58:02;;;;;;;0.70;0.60;;;16.50;77.90;;;;;;4974687;28;20105;-65
2021/12/12 09:00:29;;;;;;;0.88;0.60;;;16.50;77.90;;;;;;4974418;28;20579;-65
2021/12/12 09:02:55;;;;;;;0.73;0.60;;;16.50;77.90;;;;;;4974358;28;20121;-65
2021/12/12 09:05:22;;;;;;;0.52;0.52;;;16.50;77.90;;;;;;4974370;28;20051;-65
2021/12/12 09:07:48;;;;;;;0.73;0.60;;;16.50;77.90;;;;;;4974413;28;20137;-65
2021/12/12 09:10:15;;;;;;;0.73;0.68;;;16.60;78.00;;;;;;4974393;28;20484;-65
2021/12/12 09:12:41;;;;;;;0.60;0.60;;;16.60;78.00;;;;;;4974540;28;20083;-65
2021/12/12 09:15:08;;;;;;;0.57;0.57;;;16.50;77.90;;;;;;4974272;28;20050;-65
2021/12/12 09:17:34;;;;;;;0.70;0.60;;;16.50;78.00;;;;;;4974125;28;20097;-65
2021/12/12 09:20:02;;;;;;;0.90;0.60;;;16.50;78.00;;;;;;4974059;28;20133;-65
2021/12/12 09:22:30;;;;;;;0.80;0.60;;;16.60;78.00;;;;;;4974333;28;20086;-65
2021/12/12 09:24:57;;;;;;;0.70;0.52;;;16.50;77.90;;;;;;4988388;28;20046;-65
2021/12/12 09:27:23;;;;;;;0.60;0.60;;;16.50;78.00;;;;;;4993775;28;20050;-65
2021/12/12 09:29:50;;;;;;;0.60;0.45;;;16.50;78.10;;;;;;4993378;28;20125;-65
2021/12/12 09:32:16;;;;;;;0.75;0.60;;;16.50;78.00;;;;;;4993394;28;20125;-65
2021/12/12 09:34:43;;;;;;;0.60;0.40;;;16.50;78.10;;;;;;4993453;28;20129;-66
2021/12/12 09:37:09;;;;;;;0.43;0.38;;;16.50;78.10;;;;;;4993471;28;20051;-65
2021/12/12 09:39:35;;;;;;;0.50;0.50;;;16.50;78.10;;;;;;4993330;28;20053;-65
2021/12/12 09:42:02;;;;;;;0.80;0.50;;;16.60;78.70;;;;;;4993278;28;20046;-65
2021/12/12 09:44:28;;;;;;;0.73;0.63;;;16.50;78.10;;;;;;4993199;28;20471;-65
2021/12/12 09:47:00;;;;;;;0.63;0.50;;;16.60;78.20;;;;;;4993159;28;20124;-66
2021/12/12 09:52:11;;;;;;;0.95;0.70;;;16.60;78.20;;;;;;4993056;28;20053;-65
2021/12/12 09:54:37;;;;;;;0.43;0.40;;;16.60;78.20;;;;;;4984038;28;20054;-64
2021/12/12 09:57:04;;;;;;;0.47;0.47;;;16.60;78.30;;;;;;4973491;28;20403;-65
2021/12/12 09:59:31;;;;;;;0.75;0.45;;;16.60;78.30;;;;;;4973399;28;20061;-65
2021/12/12 10:01:58;;;;;;;0.50;0.50;;;16.60;78.20;;;;;;4973186;28;20567;-65
2021/12/12 10:04:24;;;;;;;0.60;0.50;;;16.60;78.20;;;;;;4973370;28;20170;-64
2021/12/12 10:06:52;;;;;;;0.68;0.47;;;16.60;78.30;;;;;;4972966;28;20054;-65
2021/12/12 10:09:18;;;;;;;0.57;0.57;;;16.60;78.30;;;;;;4972923;28;20053;-65
2021/12/12 10:11:45;;;;;;;0.60;0.60;;;16.60;78.30;;;;;;4973235;28;20472;-65
2021/12/12 10:14:11;;;;;;;0.60;0.55;;;16.60;78.30;;;;;;4973468;28;20057;-65
2021/12/12 10:16:38;;;;;;;0.40;0.40;;;16.50;78.30;;;;;;4973428;28;20137;-65
2021/12/12 10:19:04;;;;;;;0.52;0.40;;;16.60;78.40;;;;;;4973094;28;20054;-65
2021/12/12 10:21:31;;;;;;;0.60;0.60;;;16.60;78.40;;;;;;4973346;28;20078;-65
2021/12/12 10:23:57;;;;;;;0.43;0.43;;;16.60;78.40;;;;;;4973062;28;20167;-65
2021/12/12 10:26:24;;;;;;;0.45;0.45;;;16.60;78.40;;;;;;4973059;28;20138;-65
2021/12/12 10:28:50;;;;;;;0.50;0.40;;;16.60;78.50;;;;;;4973082;28;20134;-65
2021/12/12 10:31:17;;;;;;;0.50;0.50;;;16.60;78.40;;;;;;4972911;28;20154;-65
2021/12/12 10:33:43;;;;;;;0.65;0.60;;;16.60;78.40;;;;;;4973004;28;20129;-65
2021/12/12 10:36:10;;;;;;;0.60;0.50;;;16.60;78.50;;;;;;4972944;28;20138;-65
2021/12/12 10:38:36;;;;;;;0.75;0.52;;;16.60;78.50;;;;;;4972969;28;20133;-65
2021/12/12 10:41:03;;;;;;;0.50;0.40;;;16.60;78.50;;;;;;4972680;28;20097;-65
2021/12/12 10:43:29;;;;;;;0.70;0.50;;;16.60;78.50;;;;;;4972941;28;20057;-65
2021/12/12 10:45:56;;;;;;;0.70;0.50;;;16.60;78.50;;;;;;4972805;28;20046;-65
2021/12/12 10:48:22;;;;;;;0.55;0.47;;;16.60;78.60;;;;;;4972589;28;20498;-65
2021/12/12 10:50:49;;;;;;;0.40;0.40;;;16.60;78.60;;;;;;4972717;28;20354;-65
2021/12/12 10:53:15;;;;;;;0.70;0.60;;;16.60;78.60;;;;;;4980992;28;20086;-66
2021/12/12 10:55:42;;;;;;;0.52;0.50;;;16.60;78.60;;;;;;4991869;28;20435;-65
2021/12/12 10:58:08;;;;;;;0.60;0.60;;;16.60;78.70;;;;;;4992179;28;20077;-65
2021/12/12 11:00:35;;;;;;;0.50;0.40;;;16.60;78.70;;;;;;4991860;28;20058;-65
2021/12/12 11:03:02;;;;;;;0.50;0.40;;;16.60;78.60;;;;;;4992046;28;20473;-65
2021/12/12 11:05:28;;;;;;;0.50;0.50;;;16.60;78.60;;;;;;4992050;28;20134;-65
2021/12/12 11:07:55;;;;;;;0.60;0.47;;;16.60;78.80;;;;;;4991841;28;20052;-66
2021/12/12 11:10:21;;;;;;;0.70;0.50;;;16.60;78.70;;;;;;4991571;28;20064;-66
2021/12/12 11:12:48;;;;;;;0.68;0.50;;;16.60;78.70;;;;;;4991819;28;20518;-65
2021/12/12 11:15:14;;;;;;;0.70;0.57;;;16.60;78.70;;;;;;4992062;28;20043;-65
2021/12/12 11:17:44;;;;;;;0.90;0.50;;;16.60;78.80;;;;;;4991846;28;20215;-65
2021/12/12 11:20:10;;;;;;;0.60;0.50;;;16.60;78.80;;;;;;4994982;28;20054;-65
2021/12/12 11:22:37;;;;;;;1.13;0.60;;;16.60;78.80;;;;;;4995617;28;20057;-65
2021/12/12 11:25:03;;;;;;;0.50;0.43;;;16.60;78.80;;;;;;4995846;28;20503;-65
2021/12/12 11:27:30;;;;;;;0.55;0.45;;;16.60;78.90;;;;;;4995662;28;20081;-65
2021/12/12 11:29:56;;;;;;;0.77;0.40;;;16.60;79.00;;;;;;4995598;28;20053;-65
2021/12/12 11:32:23;;;;;;;0.40;0.40;;;16.60;78.90;;;;;;4995552;28;20133;-65
2021/12/12 11:34:49;;;;;;;0.50;0.50;;;16.60;78.90;;;;;;4995693;28;20165;-64
2021/12/12 11:37:16;;;;;;;0.68;0.60;;;16.60;78.90;;;;;;4995384;28;20047;-64
2021/12/12 11:39:42;;;;;;;0.70;0.60;;;16.60;79.00;;;;;;4995228;28;20141;-65
2021/12/12 11:42:09;;;;;;;0.55;0.50;;;16.60;79.00;;;;;;4995380;28;20575;-65
2021/12/12 11:44:35;;;;;;;0.50;0.40;;;16.70;79.00;;;;;;4995441;28;20073;-65
2021/12/12 11:47:01;;;;;;;0.50;0.50;;;16.70;79.00;;;;;;4995379;28;20145;-65
2021/12/12 11:49:28;;;;;;;0.50;0.50;;;16.60;79.00;;;;;;4995362;28;20137;-65
2021/12/12 11:51:54;;;;;;;0.60;0.60;;;16.60;79.10;;;;;;4985768;28;20047;-65
2021/12/12 11:54:21;;;;;;;0.98;0.60;;;16.70;79.10;;;;;;4976006;28;20051;-65
2021/12/12 11:56:47;;;;;;;0.77;0.60;;;16.70;79.10;;;;;;4975906;28;20053;-65
2021/12/12 11:59:14;;;;;;;0.85;0.60;;;16.60;79.10;;;;;;4975609;28;20066;-65
2021/12/12 12:01:40;;;;;;;0.47;0.40;;;16.60;79.20;;;;;;4975540;28;20082;-65
2021/12/12 12:04:07;;;;;;;0.68;0.40;;;16.70;79.20;;;;;;4975792;28;20057;-65
2021/12/12 12:06:33;;;;;;;1.92;0.70;;;16.70;79.70;;;;;;4975534;28;20074;-65
2021/12/12 12:09:00;;;;;;;0.40;0.40;;;16.70;79.30;;;;;;4975448;28;20088;-65
2021/12/12 12:11:26;;;;;;;0.60;0.57;;;16.70;79.30;;;;;;4975432;28;20133;-65
2021/12/12 12:13:53;;;;;;;0.50;0.50;;;16.70;79.30;;;;;;4975524;28;20504;-65
2021/12/12 12:16:20;;;;;;;0.73;0.50;;;16.70;79.30;;;;;;4975463;28;20105;-65
2021/12/12 12:18:46;;;;;;;0.52;0.50;;;16.70;79.20;;;;;;4975280;28;20082;-65
2021/12/12 12:21:15;;;;;;;0.30;0.30;;;16.70;79.40;;;;;;4974962;28;20138;-65
2021/12/12 12:23:59;;;;;;;0.70;0.50;;;16.70;79.40;;;;;;4975501;28;20061;-65
2021/12/12 12:29:09;;;;;;;0.60;0.60;;;16.70;79.30;;;;;;4975294;28;20033;-65
2021/12/12 12:31:36;;;;;;;0.45;0.40;;;16.70;79.40;;;;;;4973797;28;20590;-65
2021/12/12 12:34:03;;;;;;;0.47;0.47;;;16.70;79.50;;;;;;4975413;28;20054;-65
2021/12/12 12:36:29;;;;;;;0.40;0.40;;;16.80;79.50;;;;;;4974934;28;20496;-65
2021/12/12 12:38:56;;;;;;;0.73;0.60;;;16.80;79.50;;;;;;4975466;28;20491;-65
2021/12/12 12:41:23;;;;;;;0.65;0.50;;;16.70;79.50;;;;;;4975003;28;20051;-65
2021/12/12 12:43:49;;;;;;;0.63;0.55;;;16.70;79.60;;;;;;4974838;28;20125;-65
2021/12/12 12:46:16;;;;;;;0.50;0.40;;;16.70;79.60;;;;;;4975005;28;20133;-65
2021/12/12 12:48:42;;;;;;;0.77;0.60;;;16.80;79.60;;;;;;4975032;28;20137;-65
2021/12/12 12:51:09;;;;;;;0.50;0.50;;;16.70;79.50;;;;;;4974643;28;20564;-65
2021/12/12 12:53:35;;;;;;;0.57;0.50;;;16.70;79.60;;;;;;4974596;28;20408;-65
2021/12/12 12:56:02;;;;;;;0.52;0.52;;;16.70;79.70;;;;;;4974835;28;20046;-67
2021/12/12 12:58:28;;;;;;;0.60;0.50;;;16.70;79.70;;;;;;4974759;28;20055;-65
2021/12/12 13:00:55;;;;;;;0.50;0.50;;;16.80;79.80;;;;;;4974246;28;20097;-65
2021/12/12 13:03:21;;;;;;;0.63;0.50;;;16.70;79.70;;;;;;4974436;28;20522;-65
2021/12/12 13:05:49;;;;;;;0.65;0.50;;;16.70;79.80;;;;;;4974578;28;20078;-65